sensor_id;sensor_type;location;lat;lon;timestamp;temperature;humidity
13328;DHT22;6733;51.044;3.746;2023-04-30T00:01:20;9.90;99.90
13328;DHT22;6733;51.044;3.746;2023-04-30T00:03:46;9.90;99.90
13328;DHT22;6733;51.044;3.746;2023-04-30T00:06:12;9.90;99.90
13328;DHT22;6733;51.044;3.746;2023-04-30T00:08:38;9.90;99.90
13328;DHT22;6733;51.044;3.746;2023-04-30T00:11:05;9.90;99.90
13328;DHT22;6733;51.044;3.746;2023-04-30T00:13:31;9.80;99.90
13328;DHT22;6733;51.044;3.746;2023-04-30T00:15:57;9.80;99.90
13328;DHT22;6733;51.044;3.746;2023-04-30T00:18:23;9.80;99.90
13328;DHT22;6733;51.044;3.746;2023-04-30T00:20:50;9.80;99.90
13328;DHT22;6733;51.044;3.746;2023-04-30T00:23:18;9.80;99.90
13328;DHT22;6733;51.044;3.746;2023-04-30T00:25:44;9.70;99.90
13328;DHT22;6733;51.044;3.746;2023-04-30T00:28:10;9.70;99.90
13328;DHT22;6733;51.044;3.746;2023-04-30T00:30:37;9.70;99.90
13328;DHT22;6733;51.044;3.746;2023-04-30T00:33:03;9.70;99.90
13328;DHT22;6733;51.044;3.746;2023-04-30T00:35:29;9.60;99.90
13328;DHT22;6733;51.044;3.746;2023-04-30T00:37:55;9.60;99.90
13328;DHT22;6733;51.044;3.746;2023-04-30T00:40:21;9.60;99.90
13328;DHT22;6733;51.044;3.746;2023-04-30T00:42:48;9.60;99.90
13328;DHT22;6733;51.044;3.746;2023-04-30T00:45:14;9.60;99.90
13328;DHT22;6733;51.044;3.746;2023-04-30T00:47:42;9.60;99.90
13328;DHT22;6733;51.044;3.746;2023-04-30T00:50:08;9.50;99.90
13328;DHT22;6733;51.044;3.746;2023-04-30T00:52:35;9.50;99.90
13328;DHT22;6733;51.044;3.746;2023-04-30T00:55:01;9.50;99.90
13328;DHT22;6733;51.044;3.746;2023-04-30T00:57:27;9.50;99.90
13328;DHT22;6733;51.044;3.746;2023-04-30T00:59:54;9.40;99.90
13328;DHT22;6733;51.044;3.746;2023-04-30T01:02:21;9.40;99.90
13328;DHT22;6733;51.044;3.746;2023-04-30T01:04:49;9.40;99.90
13328;DHT22;6733;51.044;3.746;2023-04-30T01:07:15;9.40;99.90
13328;DHT22;6733;51.044;3.746;2023-04-30T01:09:41;9.40;99.90
13328;DHT22;6733;51.044;3.746;2023-04-30T01:12:09;9.40;99.90
13328;DHT22;6733;51.044;3.746;2023-04-30T01:17:50;9.30;99.90
13328;DHT22;6733;51.044;3.746;2023-04-30T01:20:19;9.30;99.90
13328;DHT22;6733;51.044;3.746;2023-04-30T01:22:49;9.30;99.90
13328;DHT22;6733;51.044;3.746;2023-04-30T01:25:41;9.20;99.90
13328;DHT22;6733;51.044;3.746;2023-04-30T01:30:38;9.20;99.90
13328;DHT22;6733;51.044;3.746;2023-04-30T01:33:06;9.20;99.90
13328;DHT22;6733;51.044;3.746;2023-04-30T01:41:34;9.20;99.90
13328;DHT22;6733;51.044;3.746;2023-04-30T01:48:00;9.10;99.90
13328;DHT22;6733;51.044;3.746;2023-04-30T01:50:18;9.10;99.90
13328;DHT22;6733;51.044;3.746;2023-04-30T01:52:49;9.10;99.90
13328;DHT22;6733;51.044;3.746;2023-04-30T01:55:23;9.10;99.90
13328;DHT22;6733;51.044;3.746;2023-04-30T01:58:06;9.10;99.90
13328;DHT22;6733;51.044;3.746;2023-04-30T02:00:34;9.10;99.90
13328;DHT22;6733;51.044;3.746;2023-04-30T02:03:00;9.10;99.90
13328;DHT22;6733;51.044;3.746;2023-04-30T02:05:26;9.10;99.90
13328;DHT22;6733;51.044;3.746;2023-04-30T02:07:54;9.10;99.90
13328;DHT22;6733;51.044;3.746;2023-04-30T02:10:21;9.00;99.90
13328;DHT22;6733;51.044;3.746;2023-04-30T02:12:48;9.00;99.90
13328;DHT22;6733;51.044;3.746;2023-04-30T02:15:14;9.00;99.90
13328;DHT22;6733;51.044;3.746;2023-04-30T02:17:41;9.00;99.90
13328;DHT22;6733;51.044;3.746;2023-04-30T02:20:08;9.00;99.90
13328;DHT22;6733;51.044;3.746;2023-04-30T02:22:34;9.00;99.90
13328;DHT22;6733;51.044;3.746;2023-04-30T02:25:01;9.00;99.90
13328;DHT22;6733;51.044;3.746;2023-04-30T02:27:30;9.00;99.90
13328;DHT22;6733;51.044;3.746;2023-04-30T02:29:56;9.00;99.90
13328;DHT22;6733;51.044;3.746;2023-04-30T02:32:23;9.00;99.90
13328;DHT22;6733;51.044;3.746;2023-04-30T02:35:14;9.00;99.90
13328;DHT22;6733;51.044;3.746;2023-04-30T02:38:29;9.00;99.90
13328;DHT22;6733;51.044;3.746;2023-04-30T02:41:46;8.90;99.90
13328;DHT22;6733;51.044;3.746;2023-04-30T02:45:03;8.90;99.90
13328;DHT22;6733;51.044;3.746;2023-04-30T02:48:19;8.90;99.90
13328;DHT22;6733;51.044;3.746;2023-04-30T02:51:35;8.90;99.90
13328;DHT22;6733;51.044;3.746;2023-04-30T02:54:51;8.80;99.90
13328;DHT22;6733;51.044;3.746;2023-04-30T02:57:17;8.80;99.90
13328;DHT22;6733;51.044;3.746;2023-04-30T02:59:43;8.80;99.90
13328;DHT22;6733;51.044;3.746;2023-04-30T03:02:11;8.80;99.90
13328;DHT22;6733;51.044;3.746;2023-04-30T03:04:38;8.80;99.90
13328;DHT22;6733;51.044;3.746;2023-04-30T03:07:04;8.80;99.90
13328;DHT22;6733;51.044;3.746;2023-04-30T03:09:31;8.80;99.90
13328;DHT22;6733;51.044;3.746;2023-04-30T03:11:57;8.80;99.90
13328;DHT22;6733;51.044;3.746;2023-04-30T03:14:24;8.70;99.90
13328;DHT22;6733;51.044;3.746;2023-04-30T03:16:50;8.70;99.90
13328;DHT22;6733;51.044;3.746;2023-04-30T03:19:16;8.70;99.90
13328;DHT22;6733;51.044;3.746;2023-04-30T03:21:46;8.70;99.90
13328;DHT22;6733;51.044;3.746;2023-04-30T03:24:13;8.70;99.90
13328;DHT22;6733;51.044;3.746;2023-04-30T03:26:39;8.70;99.90
13328;DHT22;6733;51.044;3.746;2023-04-30T03:29:06;8.70;99.90
13328;DHT22;6733;51.044;3.746;2023-04-30T03:31:32;8.70;99.90
13328;DHT22;6733;51.044;3.746;2023-04-30T03:33:58;8.70;99.90
13328;DHT22;6733;51.044;3.746;2023-04-30T03:36:24;8.70;99.90
13328;DHT22;6733;51.044;3.746;2023-04-30T03:38:52;8.70;99.90
13328;DHT22;6733;51.044;3.746;2023-04-30T03:41:18;8.70;99.90
13328;DHT22;6733;51.044;3.746;2023-04-30T03:43:44;8.60;99.90
13328;DHT22;6733;51.044;3.746;2023-04-30T03:46:11;8.60;99.90
13328;DHT22;6733;51.044;3.746;2023-04-30T03:48:37;8.60;99.90
13328;DHT22;6733;51.044;3.746;2023-04-30T03:51:03;8.60;99.90
13328;DHT22;6733;51.044;3.746;2023-04-30T03:53:29;8.60;99.90
13328;DHT22;6733;51.044;3.746;2023-04-30T03:55:56;8.50;99.90
13328;DHT22;6733;51.044;3.746;2023-04-30T03:58:22;8.50;99.90
13328;DHT22;6733;51.044;3.746;2023-04-30T04:00:48;8.50;99.90
13328;DHT22;6733;51.044;3.746;2023-04-30T04:03:15;8.50;99.90
13328;DHT22;6733;51.044;3.746;2023-04-30T04:05:41;8.50;99.90
13328;DHT22;6733;51.044;3.746;2023-04-30T04:08:08;8.50;99.90
13328;DHT22;6733;51.044;3.746;2023-04-30T04:10:34;8.50;99.90
13328;DHT22;6733;51.044;3.746;2023-04-30T04:13:00;8.50;99.90
13328;DHT22;6733;51.044;3.746;2023-04-30T04:15:26;8.50;99.90
13328;DHT22;6733;51.044;3.746;2023-04-30T04:17:53;8.40;99.90
13328;DHT22;6733;51.044;3.746;2023-04-30T04:20:19;8.40;99.90
13328;DHT22;6733;51.044;3.746;2023-04-30T04:22:45;8.40;99.90
13328;DHT22;6733;51.044;3.746;2023-04-30T04:25:11;8.40;99.90
13328;DHT22;6733;51.044;3.746;2023-04-30T04:27:38;8.40;99.90
13328;DHT22;6733;51.044;3.746;2023-04-30T04:30:05;8.40;99.90
13328;DHT22;6733;51.044;3.746;2023-04-30T04:32:31;8.40;99.90
13328;DHT22;6733;51.044;3.746;2023-04-30T04:34:58;8.40;99.90
13328;DHT22;6733;51.044;3.746;2023-04-30T04:37:24;8.40;99.90
13328;DHT22;6733;51.044;3.746;2023-04-30T04:39:50;8.40;99.90
13328;DHT22;6733;51.044;3.746;2023-04-30T04:42:16;8.40;99.90
13328;DHT22;6733;51.044;3.746;2023-04-30T04:44:42;8.40;99.90
13328;DHT22;6733;51.044;3.746;2023-04-30T04:47:09;8.40;99.90
13328;DHT22;6733;51.044;3.746;2023-04-30T04:49:37;8.50;99.90
13328;DHT22;6733;51.044;3.746;2023-04-30T04:52:03;8.50;99.90
13328;DHT22;6733;51.044;3.746;2023-04-30T04:54:30;8.50;99.90
13328;DHT22;6733;51.044;3.746;2023-04-30T04:56:56;8.50;99.90
13328;DHT22;6733;51.044;3.746;2023-04-30T04:59:22;8.60;99.90
13328;DHT22;6733;51.044;3.746;2023-04-30T05:01:48;8.60;99.90
13328;DHT22;6733;51.044;3.746;2023-04-30T05:04:14;8.60;99.90
13328;DHT22;6733;51.044;3.746;2023-04-30T05:06:41;8.60;99.90
13328;DHT22;6733;51.044;3.746;2023-04-30T05:09:07;8.70;99.90
13328;DHT22;6733;51.044;3.746;2023-04-30T05:11:35;8.70;99.90
13328;DHT22;6733;51.044;3.746;2023-04-30T05:14:01;8.70;99.90
13328;DHT22;6733;51.044;3.746;2023-04-30T05:16:27;8.80;99.90
13328;DHT22;6733;51.044;3.746;2023-04-30T05:18:53;8.80;99.90
13328;DHT22;6733;51.044;3.746;2023-04-30T05:21:19;8.80;99.90
13328;DHT22;6733;51.044;3.746;2023-04-30T05:23:46;8.90;99.90
13328;DHT22;6733;51.044;3.746;2023-04-30T05:26:12;8.90;99.90
13328;DHT22;6733;51.044;3.746;2023-04-30T05:28:38;8.90;99.90
13328;DHT22;6733;51.044;3.746;2023-04-30T05:31:04;9.00;99.90
13328;DHT22;6733;51.044;3.746;2023-04-30T05:33:30;9.10;99.90
13328;DHT22;6733;51.044;3.746;2023-04-30T05:35:56;9.10;99.90
13328;DHT22;6733;51.044;3.746;2023-04-30T05:38:23;9.20;99.90
13328;DHT22;6733;51.044;3.746;2023-04-30T05:40:49;9.20;99.90
13328;DHT22;6733;51.044;3.746;2023-04-30T05:43:15;9.30;99.90
13328;DHT22;6733;51.044;3.746;2023-04-30T05:45:41;9.30;99.90
13328;DHT22;6733;51.044;3.746;2023-04-30T05:48:07;9.40;99.90
13328;DHT22;6733;51.044;3.746;2023-04-30T05:50:33;9.40;99.90
13328;DHT22;6733;51.044;3.746;2023-04-30T05:53:00;9.40;99.90
13328;DHT22;6733;51.044;3.746;2023-04-30T05:55:26;9.40;99.90
13328;DHT22;6733;51.044;3.746;2023-04-30T05:57:52;9.50;99.90
13328;DHT22;6733;51.044;3.746;2023-04-30T06:00:18;9.50;99.90
13328;DHT22;6733;51.044;3.746;2023-04-30T06:02:44;9.60;99.90
13328;DHT22;6733;51.044;3.746;2023-04-30T06:05:10;9.70;99.90
13328;DHT22;6733;51.044;3.746;2023-04-30T06:07:37;9.70;99.90
13328;DHT22;6733;51.044;3.746;2023-04-30T06:10:03;9.80;99.90
13328;DHT22;6733;51.044;3.746;2023-04-30T06:12:30;9.90;99.90
13328;DHT22;6733;51.044;3.746;2023-04-30T06:14:56;10.00;99.90
13328;DHT22;6733;51.044;3.746;2023-04-30T06:17:22;10.10;99.90
13328;DHT22;6733;51.044;3.746;2023-04-30T06:19:48;10.10;99.90
13328;DHT22;6733;51.044;3.746;2023-04-30T06:22:15;10.20;99.90
13328;DHT22;6733;51.044;3.746;2023-04-30T06:24:41;10.40;99.90
13328;DHT22;6733;51.044;3.746;2023-04-30T06:27:07;10.50;99.90
13328;DHT22;6733;51.044;3.746;2023-04-30T06:29:33;10.60;99.90
13328;DHT22;6733;51.044;3.746;2023-04-30T06:32:00;10.70;99.90
13328;DHT22;6733;51.044;3.746;2023-04-30T06:34:27;10.90;99.90
13328;DHT22;6733;51.044;3.746;2023-04-30T06:36:54;11.00;99.90
13328;DHT22;6733;51.044;3.746;2023-04-30T06:39:20;11.20;99.90
13328;DHT22;6733;51.044;3.746;2023-04-30T06:41:46;11.30;99.90
13328;DHT22;6733;51.044;3.746;2023-04-30T06:44:13;11.50;99.90
13328;DHT22;6733;51.044;3.746;2023-04-30T06:46:40;11.70;99.90
13328;DHT22;6733;51.044;3.746;2023-04-30T06:49:06;11.80;99.90
13328;DHT22;6733;51.044;3.746;2023-04-30T06:51:32;12.00;99.90
13328;DHT22;6733;51.044;3.746;2023-04-30T06:53:58;12.10;99.90
13328;DHT22;6733;51.044;3.746;2023-04-30T06:56:25;12.30;99.90
13328;DHT22;6733;51.044;3.746;2023-04-30T06:58:51;12.40;99.90
13328;DHT22;6733;51.044;3.746;2023-04-30T07:01:17;12.60;99.90
13328;DHT22;6733;51.044;3.746;2023-04-30T07:03:44;12.20;99.90
13328;DHT22;6733;51.044;3.746;2023-04-30T07:06:10;11.80;99.90
13328;DHT22;6733;51.044;3.746;2023-04-30T07:08:36;11.90;99.90
13328;DHT22;6733;51.044;3.746;2023-04-30T07:11:03;12.10;99.90
13328;DHT22;6733;51.044;3.746;2023-04-30T07:13:29;12.10;99.90
13328;DHT22;6733;51.044;3.746;2023-04-30T07:15:55;12.20;99.90
13328;DHT22;6733;51.044;3.746;2023-04-30T07:18:22;12.20;99.90
13328;DHT22;6733;51.044;3.746;2023-04-30T07:20:48;12.30;99.90
13328;DHT22;6733;51.044;3.746;2023-04-30T07:23:14;12.20;99.90
13328;DHT22;6733;51.044;3.746;2023-04-30T07:25:40;12.40;99.90
13328;DHT22;6733;51.044;3.746;2023-04-30T07:28:06;12.50;99.90
13328;DHT22;6733;51.044;3.746;2023-04-30T07:30:33;12.20;99.90
13328;DHT22;6733;51.044;3.746;2023-04-30T07:32:59;12.30;99.90
13328;DHT22;6733;51.044;3.746;2023-04-30T07:35:25;12.30;99.90
13328;DHT22;6733;51.044;3.746;2023-04-30T07:37:52;12.70;99.90
13328;DHT22;6733;51.044;3.746;2023-04-30T07:40:18;12.90;99.90
13328;DHT22;6733;51.044;3.746;2023-04-30T07:42:44;13.10;99.90
13328;DHT22;6733;51.044;3.746;2023-04-30T07:45:11;13.20;99.90
13328;DHT22;6733;51.044;3.746;2023-04-30T07:47:38;13.10;99.90
13328;DHT22;6733;51.044;3.746;2023-04-30T07:50:05;13.30;99.90
13328;DHT22;6733;51.044;3.746;2023-04-30T07:52:31;13.60;99.90
13328;DHT22;6733;51.044;3.746;2023-04-30T07:54:57;13.90;99.90
13328;DHT22;6733;51.044;3.746;2023-04-30T07:57:23;14.10;99.90
13328;DHT22;6733;51.044;3.746;2023-04-30T07:59:53;14.20;99.90
13328;DHT22;6733;51.044;3.746;2023-04-30T08:02:19;13.90;99.90
13328;DHT22;6733;51.044;3.746;2023-04-30T08:04:45;13.90;99.90
13328;DHT22;6733;51.044;3.746;2023-04-30T08:07:12;14.30;99.90
13328;DHT22;6733;51.044;3.746;2023-04-30T08:09:40;14.60;99.90
13328;DHT22;6733;51.044;3.746;2023-04-30T08:12:08;14.70;99.90
13328;DHT22;6733;51.044;3.746;2023-04-30T08:14:34;14.90;99.90
13328;DHT22;6733;51.044;3.746;2023-04-30T08:17:01;15.10;99.90
13328;DHT22;6733;51.044;3.746;2023-04-30T08:19:28;15.10;99.90
13328;DHT22;6733;51.044;3.746;2023-04-30T08:21:54;15.10;99.90
13328;DHT22;6733;51.044;3.746;2023-04-30T08:24:20;15.20;99.90
13328;DHT22;6733;51.044;3.746;2023-04-30T08:26:46;15.50;99.90
13328;DHT22;6733;51.044;3.746;2023-04-30T08:29:12;15.60;99.90
13328;DHT22;6733;51.044;3.746;2023-04-30T08:31:39;15.70;99.90
13328;DHT22;6733;51.044;3.746;2023-04-30T08:34:05;15.90;99.90
13328;DHT22;6733;51.044;3.746;2023-04-30T08:36:31;16.00;99.90
13328;DHT22;6733;51.044;3.746;2023-04-30T08:38:57;16.00;99.90
13328;DHT22;6733;51.044;3.746;2023-04-30T08:41:31;16.40;99.90
13328;DHT22;6733;51.044;3.746;2023-04-30T08:44:02;16.00;99.90
13328;DHT22;6733;51.044;3.746;2023-04-30T08:46:33;16.40;99.90
13328;DHT22;6733;51.044;3.746;2023-04-30T08:49:00;16.70;99.90
13328;DHT22;6733;51.044;3.746;2023-04-30T08:51:29;16.70;99.90
13328;DHT22;6733;51.044;3.746;2023-04-30T08:53:56;16.60;99.90
13328;DHT22;6733;51.044;3.746;2023-04-30T08:56:23;16.60;99.90
13328;DHT22;6733;51.044;3.746;2023-04-30T08:58:50;16.90;99.90
13328;DHT22;6733;51.044;3.746;2023-04-30T09:01:16;16.60;99.90
13328;DHT22;6733;51.044;3.746;2023-04-30T09:03:42;16.70;99.90
13328;DHT22;6733;51.044;3.746;2023-04-30T09:06:09;17.20;99.90
13328;DHT22;6733;51.044;3.746;2023-04-30T09:08:46;17.50;99.90
13328;DHT22;6733;51.044;3.746;2023-04-30T09:11:26;17.40;99.90
13328;DHT22;6733;51.044;3.746;2023-04-30T09:14:02;18.00;99.90
13328;DHT22;6733;51.044;3.746;2023-04-30T09:16:30;18.30;99.90
13328;DHT22;6733;51.044;3.746;2023-04-30T09:19:25;18.50;99.90
13328;DHT22;6733;51.044;3.746;2023-04-30T09:21:52;18.30;99.90
13328;DHT22;6733;51.044;3.746;2023-04-30T09:24:19;17.50;99.90
13328;DHT22;6733;51.044;3.746;2023-04-30T09:26:46;17.80;99.90
13328;DHT22;6733;51.044;3.746;2023-04-30T09:29:13;17.80;99.90
13328;DHT22;6733;51.044;3.746;2023-04-30T09:31:44;18.30;99.90
13328;DHT22;6733;51.044;3.746;2023-04-30T09:34:12;17.90;99.90
13328;DHT22;6733;51.044;3.746;2023-04-30T09:36:54;18.00;99.90
13328;DHT22;6733;51.044;3.746;2023-04-30T09:39:21;18.30;99.90
13328;DHT22;6733;51.044;3.746;2023-04-30T09:41:48;18.50;99.90
13328;DHT22;6733;51.044;3.746;2023-04-30T09:44:29;18.80;99.90
13328;DHT22;6733;51.044;3.746;2023-04-30T09:46:56;18.20;99.90
13328;DHT22;6733;51.044;3.746;2023-04-30T09:49:23;17.90;99.90
13328;DHT22;6733;51.044;3.746;2023-04-30T09:52:00;17.90;99.90
13328;DHT22;6733;51.044;3.746;2023-04-30T09:54:28;18.40;99.90
13328;DHT22;6733;51.044;3.746;2023-04-30T09:56:55;18.80;99.90
13328;DHT22;6733;51.044;3.746;2023-04-30T10:01:54;18.70;99.90
13328;DHT22;6733;51.044;3.746;2023-04-30T10:04:21;18.50;99.90
13328;DHT22;6733;51.044;3.746;2023-04-30T10:06:49;18.60;99.90
13328;DHT22;6733;51.044;3.746;2023-04-30T10:09:17;18.60;99.90
13328;DHT22;6733;51.044;3.746;2023-04-30T10:11:43;18.80;99.90
13328;DHT22;6733;51.044;3.746;2023-04-30T10:14:11;18.60;99.90
13328;DHT22;6733;51.044;3.746;2023-04-30T10:17:02;18.40;99.90
13328;DHT22;6733;51.044;3.746;2023-04-30T10:19:33;18.60;99.90
13328;DHT22;6733;51.044;3.746;2023-04-30T10:22:01;19.10;99.90
13328;DHT22;6733;51.044;3.746;2023-04-30T10:24:28;19.30;99.90
13328;DHT22;6733;51.044;3.746;2023-04-30T10:26:55;19.30;99.90
13328;DHT22;6733;51.044;3.746;2023-04-30T10:29:22;19.20;99.90
13328;DHT22;6733;51.044;3.746;2023-04-30T10:31:49;19.00;99.90
13328;DHT22;6733;51.044;3.746;2023-04-30T10:39:55;19.10;99.90
13328;DHT22;6733;51.044;3.746;2023-04-30T10:42:22;19.50;99.90
13328;DHT22;6733;51.044;3.746;2023-04-30T10:44:48;19.80;99.90
13328;DHT22;6733;51.044;3.746;2023-04-30T10:47:15;19.70;99.90
13328;DHT22;6733;51.044;3.746;2023-04-30T10:50:08;19.60;99.90
13328;DHT22;6733;51.044;3.746;2023-04-30T10:52:36;19.40;99.90
13328;DHT22;6733;51.044;3.746;2023-04-30T10:55:09;19.80;99.90
13328;DHT22;6733;51.044;3.746;2023-04-30T10:57:42;19.90;99.90
13328;DHT22;6733;51.044;3.746;2023-04-30T11:02:45;19.90;99.90
13328;DHT22;6733;51.044;3.746;2023-04-30T11:05:16;19.60;99.90
13328;DHT22;6733;51.044;3.746;2023-04-30T11:07:47;19.10;99.90
13328;DHT22;6733;51.044;3.746;2023-04-30T11:10:14;19.90;99.90
13328;DHT22;6733;51.044;3.746;2023-04-30T11:12:46;19.90;99.90
13328;DHT22;6733;51.044;3.746;2023-04-30T11:15:17;19.80;99.90
13328;DHT22;6733;51.044;3.746;2023-04-30T11:17:48;20.10;99.90
13328;DHT22;6733;51.044;3.746;2023-04-30T11:20:22;20.00;99.90
13328;DHT22;6733;51.044;3.746;2023-04-30T11:23:10;20.30;99.80
13328;DHT22;6733;51.044;3.746;2023-04-30T11:25:45;19.70;99.30
13328;DHT22;6733;51.044;3.746;2023-04-30T11:28:25;20.40;99.30
13328;DHT22;6733;51.044;3.746;2023-04-30T11:30:53;20.20;99.80
13328;DHT22;6733;51.044;3.746;2023-04-30T11:33:21;20.70;99.90
13328;DHT22;6733;51.044;3.746;2023-04-30T11:35:50;21.00;99.70
13328;DHT22;6733;51.044;3.746;2023-04-30T11:38:25;20.40;99.90
13328;DHT22;6733;51.044;3.746;2023-04-30T11:40:52;20.30;99.80
13328;DHT22;6733;51.044;3.746;2023-04-30T11:43:24;20.00;99.60
13328;DHT22;6733;51.044;3.746;2023-04-30T11:48:37;20.20;99.90
13328;DHT22;6733;51.044;3.746;2023-04-30T11:51:12;20.20;99.70
13328;DHT22;6733;51.044;3.746;2023-04-30T11:53:39;20.10;99.80
13328;DHT22;6733;51.044;3.746;2023-04-30T11:56:05;20.20;98.90
13328;DHT22;6733;51.044;3.746;2023-04-30T11:58:36;20.20;99.20
13328;DHT22;6733;51.044;3.746;2023-04-30T12:01:08;20.40;98.90
13328;DHT22;6733;51.044;3.746;2023-04-30T12:03:46;20.60;97.90
13328;DHT22;6733;51.044;3.746;2023-04-30T12:06:31;20.40;98.90
13328;DHT22;6733;51.044;3.746;2023-04-30T12:08:58;20.50;98.80
13328;DHT22;6733;51.044;3.746;2023-04-30T12:11:37;20.50;98.90
13328;DHT22;6733;51.044;3.746;2023-04-30T12:14:10;20.70;98.20
13328;DHT22;6733;51.044;3.746;2023-04-30T12:16:42;20.40;97.40
13328;DHT22;6733;51.044;3.746;2023-04-30T12:19:22;20.90;96.90
13328;DHT22;6733;51.044;3.746;2023-04-30T12:21:50;20.90;97.20
13328;DHT22;6733;51.044;3.746;2023-04-30T12:24:18;21.10;97.10
13328;DHT22;6733;51.044;3.746;2023-04-30T12:26:44;20.90;96.80
13328;DHT22;6733;51.044;3.746;2023-04-30T12:29:15;20.80;96.90
13328;DHT22;6733;51.044;3.746;2023-04-30T12:31:42;21.00;96.30
13328;DHT22;6733;51.044;3.746;2023-04-30T12:34:13;21.20;96.10
13328;DHT22;6733;51.044;3.746;2023-04-30T12:36:40;21.20;96.00
13328;DHT22;6733;51.044;3.746;2023-04-30T12:39:11;21.20;96.20
13328;DHT22;6733;51.044;3.746;2023-04-30T12:41:46;21.50;95.50
13328;DHT22;6733;51.044;3.746;2023-04-30T12:44:20;21.50;94.90
13328;DHT22;6733;51.044;3.746;2023-04-30T12:46:47;21.40;94.70
13328;DHT22;6733;51.044;3.746;2023-04-30T12:49:27;21.20;95.40
13328;DHT22;6733;51.044;3.746;2023-04-30T12:52:05;20.60;95.40
13328;DHT22;6733;51.044;3.746;2023-04-30T12:54:35;20.90;95.50
13328;DHT22;6733;51.044;3.746;2023-04-30T12:57:07;20.80;95.50
13328;DHT22;6733;51.044;3.746;2023-04-30T12:59:38;21.40;95.30
13328;DHT22;6733;51.044;3.746;2023-04-30T13:02:08;21.40;94.50
13328;DHT22;6733;51.044;3.746;2023-04-30T13:04:35;21.40;94.10
13328;DHT22;6733;51.044;3.746;2023-04-30T13:07:03;21.60;94.30
13328;DHT22;6733;51.044;3.746;2023-04-30T13:09:33;21.30;94.20
13328;DHT22;6733;51.044;3.746;2023-04-30T13:11:59;20.80;94.40
13328;DHT22;6733;51.044;3.746;2023-04-30T13:14:26;20.90;94.00
13328;DHT22;6733;51.044;3.746;2023-04-30T13:16:52;20.90;93.30
13328;DHT22;6733;51.044;3.746;2023-04-30T13:19:19;21.10;93.30
13328;DHT22;6733;51.044;3.746;2023-04-30T13:21:45;21.10;93.50
13328;DHT22;6733;51.044;3.746;2023-04-30T13:24:11;20.90;93.40
13328;DHT22;6733;51.044;3.746;2023-04-30T13:26:38;20.90;93.50
13328;DHT22;6733;51.044;3.746;2023-04-30T13:29:04;21.10;93.40
13328;DHT22;6733;51.044;3.746;2023-04-30T13:31:30;21.10;93.00
13328;DHT22;6733;51.044;3.746;2023-04-30T13:33:56;21.40;93.70
13328;DHT22;6733;51.044;3.746;2023-04-30T13:36:22;21.70;93.40
13328;DHT22;6733;51.044;3.746;2023-04-30T13:38:49;21.90;93.20
13328;DHT22;6733;51.044;3.746;2023-04-30T13:41:15;22.20;92.90
13328;DHT22;6733;51.044;3.746;2023-04-30T13:43:41;22.10;92.50
13328;DHT22;6733;51.044;3.746;2023-04-30T13:46:09;21.40;92.30
13328;DHT22;6733;51.044;3.746;2023-04-30T13:48:35;21.30;92.10
13328;DHT22;6733;51.044;3.746;2023-04-30T13:51:02;21.80;92.60
13328;DHT22;6733;51.044;3.746;2023-04-30T13:53:28;22.10;92.00
13328;DHT22;6733;51.044;3.746;2023-04-30T13:55:54;22.20;91.70
13328;DHT22;6733;51.044;3.746;2023-04-30T13:58:21;21.50;91.40
13328;DHT22;6733;51.044;3.746;2023-04-30T14:00:47;20.90;91.80
13328;DHT22;6733;51.044;3.746;2023-04-30T14:03:13;20.90;92.40
13328;DHT22;6733;51.044;3.746;2023-04-30T14:05:40;21.30;92.20
13328;DHT22;6733;51.044;3.746;2023-04-30T14:08:06;21.80;91.70
13328;DHT22;6733;51.044;3.746;2023-04-30T14:10:37;21.60;92.40
13328;DHT22;6733;51.044;3.746;2023-04-30T14:13:06;21.10;92.30
13328;DHT22;6733;51.044;3.746;2023-04-30T14:15:33;21.80;91.50
13328;DHT22;6733;51.044;3.746;2023-04-30T14:17:59;22.40;91.10
13328;DHT22;6733;51.044;3.746;2023-04-30T14:20:26;22.60;90.90
13328;DHT22;6733;51.044;3.746;2023-04-30T14:22:52;23.30;90.20
13328;DHT22;6733;51.044;3.746;2023-04-30T14:25:18;23.30;90.30
13328;DHT22;6733;51.044;3.746;2023-04-30T14:27:45;23.30;88.90
13328;DHT22;6733;51.044;3.746;2023-04-30T14:30:12;23.50;89.70
13328;DHT22;6733;51.044;3.746;2023-04-30T14:32:38;22.90;87.50
13328;DHT22;6733;51.044;3.746;2023-04-30T14:35:05;23.00;86.70
13328;DHT22;6733;51.044;3.746;2023-04-30T14:37:31;22.70;88.10
13328;DHT22;6733;51.044;3.746;2023-04-30T14:39:57;22.30;89.10
13328;DHT22;6733;51.044;3.746;2023-04-30T14:42:25;22.20;90.00
13328;DHT22;6733;51.044;3.746;2023-04-30T14:44:51;21.90;90.00
13328;DHT22;6733;51.044;3.746;2023-04-30T14:47:18;21.70;90.20
13328;DHT22;6733;51.044;3.746;2023-04-30T14:49:46;21.70;91.00
13328;DHT22;6733;51.044;3.746;2023-04-30T14:52:14;21.20;90.30
13328;DHT22;6733;51.044;3.746;2023-04-30T14:54:40;21.60;90.50
13328;DHT22;6733;51.044;3.746;2023-04-30T14:57:06;21.70;90.90
13328;DHT22;6733;51.044;3.746;2023-04-30T14:59:32;21.40;90.60
13328;DHT22;6733;51.044;3.746;2023-04-30T15:02:00;21.60;90.60
13328;DHT22;6733;51.044;3.746;2023-04-30T15:04:26;21.40;90.10
13328;DHT22;6733;51.044;3.746;2023-04-30T15:06:52;20.90;91.00
13328;DHT22;6733;51.044;3.746;2023-04-30T15:09:19;21.10;91.10
13328;DHT22;6733;51.044;3.746;2023-04-30T15:11:46;21.10;91.00
13328;DHT22;6733;51.044;3.746;2023-04-30T15:14:13;21.30;90.80
13328;DHT22;6733;51.044;3.746;2023-04-30T15:16:42;21.90;90.90
13328;DHT22;6733;51.044;3.746;2023-04-30T15:19:08;22.20;91.20
13328;DHT22;6733;51.044;3.746;2023-04-30T15:21:35;21.80;90.20
13328;DHT22;6733;51.044;3.746;2023-04-30T15:24:01;21.60;90.80
13328;DHT22;6733;51.044;3.746;2023-04-30T15:26:28;21.60;90.50
13328;DHT22;6733;51.044;3.746;2023-04-30T15:28:55;21.70;90.70
13328;DHT22;6733;51.044;3.746;2023-04-30T15:31:23;21.80;90.80
13328;DHT22;6733;51.044;3.746;2023-04-30T15:33:49;21.50;90.40
13328;DHT22;6733;51.044;3.746;2023-04-30T15:36:16;21.50;90.40
13328;DHT22;6733;51.044;3.746;2023-04-30T15:38:42;21.40;90.30
13328;DHT22;6733;51.044;3.746;2023-04-30T15:41:09;21.60;89.60
13328;DHT22;6733;51.044;3.746;2023-04-30T15:43:35;21.80;88.50
13328;DHT22;6733;51.044;3.746;2023-04-30T15:46:01;21.70;90.00
13328;DHT22;6733;51.044;3.746;2023-04-30T15:48:28;21.90;89.90
13328;DHT22;6733;51.044;3.746;2023-04-30T15:50:54;22.80;91.20
13328;DHT22;6733;51.044;3.746;2023-04-30T15:53:22;23.10;88.50
13328;DHT22;6733;51.044;3.746;2023-04-30T15:55:48;22.60;87.10
13328;DHT22;6733;51.044;3.746;2023-04-30T15:58:15;23.10;88.10
13328;DHT22;6733;51.044;3.746;2023-04-30T16:00:42;23.10;88.20
13328;DHT22;6733;51.044;3.746;2023-04-30T16:03:08;22.20;87.40
13328;DHT22;6733;51.044;3.746;2023-04-30T16:05:34;22.20;88.90
13328;DHT22;6733;51.044;3.746;2023-04-30T16:08:06;22.50;88.30
13328;DHT22;6733;51.044;3.746;2023-04-30T16:10:33;22.20;88.70
13328;DHT22;6733;51.044;3.746;2023-04-30T16:12:59;22.00;90.30
13328;DHT22;6733;51.044;3.746;2023-04-30T16:15:25;21.50;89.70
13328;DHT22;6733;51.044;3.746;2023-04-30T16:17:52;20.90;90.60
13328;DHT22;6733;51.044;3.746;2023-04-30T16:20:18;20.50;90.70
13328;DHT22;6733;51.044;3.746;2023-04-30T16:22:45;20.30;90.90
13328;DHT22;6733;51.044;3.746;2023-04-30T16:25:12;20.20;91.30
13328;DHT22;6733;51.044;3.746;2023-04-30T16:27:38;20.10;91.50
13328;DHT22;6733;51.044;3.746;2023-04-30T16:30:05;20.00;91.90